sensor_id;sensor_type;location;lat;lon;timestamp;P1;durP1;ratioP1;P2;durP2;ratioP2
47335;SDS011;33068;51.990;5.926;2023-07-31T00:02:06;5.50;;;2.03;;
47335;SDS011;33068;51.990;5.926;2023-07-31T00:04:32;2.47;;;1.55;;
47335;SDS011;33068;51.990;5.926;2023-07-31T00:06:59;3.63;;;1.88;;
47335;SDS011;33068;51.990;5.926;2023-07-31T00:09:25;2.47;;;1.80;;
47335;SDS011;33068;51.990;5.926;2023-07-31T00:11:52;3.08;;;2.13;;
47335;SDS011;33068;51.990;5.926;2023-07-31T00:14:18;3.28;;;2.38;;
47335;SDS011;33068;51.990;5.926;2023-07-31T00:16:45;3.10;;;2.30;;
47335;SDS011;33068;51.990;5.926;2023-07-31T00:19:11;5.95;;;2.47;;
47335;SDS011;33068;51.990;5.926;2023-07-31T00:21:37;4.78;;;2.65;;
47335;SDS011;33068;51.990;5.926;2023-07-31T00:24:04;2.85;;;2.53;;
47335;SDS011;33068;51.990;5.926;2023-07-31T00:26:30;6.28;;;3.60;;
47335;SDS011;33068;51.990;5.926;2023-07-31T00:28:58;6.03;;;3.20;;
47335;SDS011;33068;51.990;5.926;2023-07-31T00:31:24;7.03;;;3.60;;
47335;SDS011;33068;51.990;5.926;2023-07-31T00:33:51;5.88;;;3.83;;
47335;SDS011;33068;51.990;5.926;2023-07-31T00:36:17;5.65;;;3.78;;
47335;SDS011;33068;51.990;5.926;2023-07-31T00:38:44;9.18;;;3.80;;
47335;SDS011;33068;51.990;5.926;2023-07-31T00:41:10;8.57;;;4.28;;
47335;SDS011;33068;51.990;5.926;2023-07-31T00:43:36;7.85;;;4.43;;
47335;SDS011;33068;51.990;5.926;2023-07-31T00:46:04;6.18;;;4.43;;
47335;SDS011;33068;51.990;5.926;2023-07-31T00:48:30;10.77;;;5.85;;
47335;SDS011;33068;51.990;5.926;2023-07-31T00:50:58;14.63;;;6.60;;
47335;SDS011;33068;51.990;5.926;2023-07-31T00:53:26;17.38;;;7.97;;
47335;SDS011;33068;51.990;5.926;2023-07-31T00:55:53;27.23;;;9.70;;
47335;SDS011;33068;51.990;5.926;2023-07-31T00:58:20;27.17;;;11.23;;
47335;SDS011;33068;51.990;5.926;2023-07-31T01:00:46;30.88;;;11.13;;
47335;SDS011;33068;51.990;5.926;2023-07-31T01:03:13;37.53;;;12.32;;
47335;SDS011;33068;51.990;5.926;2023-07-31T01:05:43;31.73;;;12.63;;
47335;SDS011;33068;51.990;5.926;2023-07-31T01:08:22;35.45;;;13.98;;
47335;SDS011;33068;51.990;5.926;2023-07-31T01:10:57;45.38;;;15.27;;
47335;SDS011;33068;51.990;5.926;2023-07-31T01:13:31;71.25;;;19.30;;
47335;SDS011;33068;51.990;5.926;2023-07-31T01:15:57;60.15;;;19.05;;
47335;SDS011;33068;51.990;5.926;2023-07-31T01:18:24;55.47;;;18.38;;
47335;SDS011;33068;51.990;5.926;2023-07-31T01:20:54;74.18;;;21.35;;
47335;SDS011;33068;51.990;5.926;2023-07-31T01:26:09;71.18;;;19.25;;
47335;SDS011;33068;51.990;5.926;2023-07-31T01:28:42;65.10;;;20.23;;
47335;SDS011;33068;51.990;5.926;2023-07-31T01:31:17;53.45;;;17.55;;
47335;SDS011;33068;51.990;5.926;2023-07-31T01:33:46;50.67;;;18.25;;
47335;SDS011;33068;51.990;5.926;2023-07-31T01:36:13;66.30;;;19.90;;
47335;SDS011;33068;51.990;5.926;2023-07-31T01:38:40;60.08;;;18.27;;
47335;SDS011;33068;51.990;5.926;2023-07-31T01:41:08;59.33;;;18.30;;
47335;SDS011;33068;51.990;5.926;2023-07-31T01:43:34;58.30;;;18.33;;
47335;SDS011;33068;51.990;5.926;2023-07-31T01:46:01;55.05;;;17.60;;
47335;SDS011;33068;51.990;5.926;2023-07-31T01:48:27;61.63;;;16.60;;
47335;SDS011;33068;51.990;5.926;2023-07-31T01:50:54;48.90;;;16.33;;
47335;SDS011;33068;51.990;5.926;2023-07-31T01:53:20;61.20;;;18.52;;
47335;SDS011;33068;51.990;5.926;2023-07-31T01:55:47;49.92;;;16.48;;
47335;SDS011;33068;51.990;5.926;2023-07-31T01:58:14;58.58;;;16.70;;
47335;SDS011;33068;51.990;5.926;2023-07-31T02:00:40;55.17;;;16.67;;
47335;SDS011;33068;51.990;5.926;2023-07-31T02:03:06;55.58;;;16.52;;
47335;SDS011;33068;51.990;5.926;2023-07-31T02:05:33;59.58;;;17.83;;
47335;SDS011;33068;51.990;5.926;2023-07-31T02:08:00;45.15;;;15.85;;
47335;SDS011;33068;51.990;5.926;2023-07-31T02:10:26;42.22;;;15.25;;
47335;SDS011;33068;51.990;5.926;2023-07-31T02:12:53;47.17;;;15.73;;
47335;SDS011;33068;51.990;5.926;2023-07-31T02:15:20;48.38;;;16.13;;
47335;SDS011;33068;51.990;5.926;2023-07-31T02:17:46;47.67;;;15.23;;
47335;SDS011;33068;51.990;5.926;2023-07-31T02:20:13;44.67;;;15.07;;
47335;SDS011;33068;51.990;5.926;2023-07-31T02:22:39;50.72;;;17.23;;
47335;SDS011;33068;51.990;5.926;2023-07-31T02:25:06;40.70;;;15.63;;
47335;SDS011;33068;51.990;5.926;2023-07-31T02:27:33;46.83;;;15.77;;
47335;SDS011;33068;51.990;5.926;2023-07-31T02:30:00;42.13;;;15.05;;
47335;SDS011;33068;51.990;5.926;2023-07-31T02:32:27;45.30;;;13.80;;
47335;SDS011;33068;51.990;5.926;2023-07-31T02:34:53;42.47;;;14.25;;
47335;SDS011;33068;51.990;5.926;2023-07-31T02:37:20;38.63;;;13.85;;
47335;SDS011;33068;51.990;5.926;2023-07-31T02:39:46;45.70;;;14.68;;
47335;SDS011;33068;51.990;5.926;2023-07-31T02:42:13;50.10;;;15.30;;
47335;SDS011;33068;51.990;5.926;2023-07-31T02:44:40;52.80;;;14.88;;
47335;SDS011;33068;51.990;5.926;2023-07-31T02:47:06;66.05;;;16.05;;
47335;SDS011;33068;51.990;5.926;2023-07-31T02:49:33;51.25;;;14.88;;
47335;SDS011;33068;51.990;5.926;2023-07-31T02:52:00;45.53;;;14.73;;
47335;SDS011;33068;51.990;5.926;2023-07-31T02:54:26;47.75;;;14.43;;
47335;SDS011;33068;51.990;5.926;2023-07-31T02:56:53;41.17;;;13.77;;
47335;SDS011;33068;51.990;5.926;2023-07-31T02:59:20;39.63;;;12.43;;
47335;SDS011;33068;51.990;5.926;2023-07-31T03:01:47;40.42;;;14.38;;
47335;SDS011;33068;51.990;5.926;2023-07-31T03:04:13;36.40;;;13.18;;
47335;SDS011;33068;51.990;5.926;2023-07-31T03:06:40;45.10;;;15.25;;
47335;SDS011;33068;51.990;5.926;2023-07-31T03:09:07;48.05;;;14.85;;
47335;SDS011;33068;51.990;5.926;2023-07-31T03:11:33;49.47;;;12.88;;
47335;SDS011;33068;51.990;5.926;2023-07-31T03:13:59;43.30;;;13.68;;
47335;SDS011;33068;51.990;5.926;2023-07-31T03:16:26;37.15;;;13.25;;
47335;SDS011;33068;51.990;5.926;2023-07-31T03:18:53;45.25;;;15.02;;
47335;SDS011;33068;51.990;5.926;2023-07-31T03:21:20;48.78;;;14.15;;
47335;SDS011;33068;51.990;5.926;2023-07-31T03:23:47;48.78;;;14.52;;
47335;SDS011;33068;51.990;5.926;2023-07-31T03:26:14;43.72;;;13.70;;
47335;SDS011;33068;51.990;5.926;2023-07-31T03:28:40;36.65;;;12.93;;
47335;SDS011;33068;51.990;5.926;2023-07-31T03:31:07;45.90;;;13.38;;
47335;SDS011;33068;51.990;5.926;2023-07-31T03:33:33;46.65;;;13.20;;
47335;SDS011;33068;51.990;5.926;2023-07-31T03:36:00;39.60;;;12.88;;
47335;SDS011;33068;51.990;5.926;2023-07-31T03:38:27;39.85;;;13.80;;
47335;SDS011;33068;51.990;5.926;2023-07-31T03:40:54;37.25;;;12.70;;
47335;SDS011;33068;51.990;5.926;2023-07-31T03:43:20;47.63;;;12.68;;
47335;SDS011;33068;51.990;5.926;2023-07-31T03:45:47;40.40;;;11.57;;
47335;SDS011;33068;51.990;5.926;2023-07-31T03:48:13;31.20;;;11.60;;
47335;SDS011;33068;51.990;5.926;2023-07-31T03:50:40;42.53;;;12.05;;
47335;SDS011;33068;51.990;5.926;2023-07-31T03:53:07;40.20;;;11.48;;
47335;SDS011;33068;51.990;5.926;2023-07-31T03:55:33;33.13;;;10.55;;
47335;SDS011;33068;51.990;5.926;2023-07-31T03:58:00;38.50;;;11.02;;
47335;SDS011;33068;51.990;5.926;2023-07-31T04:00:27;36.00;;;10.75;;
47335;SDS011;33068;51.990;5.926;2023-07-31T04:02:53;40.60;;;11.02;;
47335;SDS011;33068;51.990;5.926;2023-07-31T04:05:20;34.95;;;10.18;;
47335;SDS011;33068;51.990;5.926;2023-07-31T04:07:46;32.42;;;10.35;;
47335;SDS011;33068;51.990;5.926;2023-07-31T04:10:12;39.10;;;9.77;;
47335;SDS011;33068;51.990;5.926;2023-07-31T04:12:39;29.90;;;9.50;;
47335;SDS011;33068;51.990;5.926;2023-07-31T04:15:06;35.15;;;8.98;;
47335;SDS011;33068;51.990;5.926;2023-07-31T04:17:33;32.58;;;10.00;;
47335;SDS011;33068;51.990;5.926;2023-07-31T04:20:00;28.50;;;8.80;;
47335;SDS011;33068;51.990;5.926;2023-07-31T04:22:26;29.38;;;8.75;;
47335;SDS011;33068;51.990;5.926;2023-07-31T04:24:53;31.48;;;9.15;;
47335;SDS011;33068;51.990;5.926;2023-07-31T04:27:19;32.33;;;9.70;;
47335;SDS011;33068;51.990;5.926;2023-07-31T04:29:46;32.25;;;9.38;;
47335;SDS011;33068;51.990;5.926;2023-07-31T04:32:13;26.10;;;9.30;;
47335;SDS011;33068;51.990;5.926;2023-07-31T04:34:41;31.73;;;9.10;;
47335;SDS011;33068;51.990;5.926;2023-07-31T04:37:08;30.30;;;9.52;;
47335;SDS011;33068;51.990;5.926;2023-07-31T04:39:34;26.70;;;8.40;;
47335;SDS011;33068;51.990;5.926;2023-07-31T04:42:01;32.28;;;10.77;;
47335;SDS011;33068;51.990;5.926;2023-07-31T04:44:27;36.95;;;11.15;;
47335;SDS011;33068;51.990;5.926;2023-07-31T04:46:54;29.52;;;9.73;;
47335;SDS011;33068;51.990;5.926;2023-07-31T04:49:21;32.03;;;9.73;;
47335;SDS011;33068;51.990;5.926;2023-07-31T04:51:47;30.02;;;9.95;;
47335;SDS011;33068;51.990;5.926;2023-07-31T04:54:14;28.15;;;9.77;;
47335;SDS011;33068;51.990;5.926;2023-07-31T04:56:40;31.80;;;10.10;;
47335;SDS011;33068;51.990;5.926;2023-07-31T04:59:07;26.02;;;10.38;;
47335;SDS011;33068;51.990;5.926;2023-07-31T05:01:33;29.70;;;9.40;;
47335;SDS011;33068;51.990;5.926;2023-07-31T05:03:59;26.92;;;9.18;;
47335;SDS011;33068;51.990;5.926;2023-07-31T05:06:26;25.08;;;9.85;;
47335;SDS011;33068;51.990;5.926;2023-07-31T05:08:53;27.88;;;9.02;;
47335;SDS011;33068;51.990;5.926;2023-07-31T05:11:19;29.23;;;9.27;;
47335;SDS011;33068;51.990;5.926;2023-07-31T05:13:46;24.88;;;7.90;;
47335;SDS011;33068;51.990;5.926;2023-07-31T05:16:12;31.02;;;9.48;;
47335;SDS011;33068;51.990;5.926;2023-07-31T05:18:38;24.58;;;8.68;;
47335;SDS011;33068;51.990;5.926;2023-07-31T05:21:05;23.17;;;8.48;;
47335;SDS011;33068;51.990;5.926;2023-07-31T05:23:32;33.10;;;9.65;;
47335;SDS011;33068;51.990;5.926;2023-07-31T05:26:02;30.85;;;10.02;;
47335;SDS011;33068;51.990;5.926;2023-07-31T05:28:29;20.67;;;8.88;;
47335;SDS011;33068;51.990;5.926;2023-07-31T05:30:58;25.40;;;8.73;;
47335;SDS011;33068;51.990;5.926;2023-07-31T05:33:25;23.50;;;8.65;;
47335;SDS011;33068;51.990;5.926;2023-07-31T05:35:51;25.73;;;8.40;;
47335;SDS011;33068;51.990;5.926;2023-07-31T05:38:18;30.05;;;9.10;;
47335;SDS011;33068;51.990;5.926;2023-07-31T05:40:45;28.05;;;8.52;;
47335;SDS011;33068;51.990;5.926;2023-07-31T05:43:12;25.65;;;9.15;;
47335;SDS011;33068;51.990;5.926;2023-07-31T05:45:39;34.70;;;11.70;;
47335;SDS011;33068;51.990;5.926;2023-07-31T05:48:05;29.88;;;9.88;;
47335;SDS011;33068;51.990;5.926;2023-07-31T05:50:32;30.35;;;10.15;;
47335;SDS011;33068;51.990;5.926;2023-07-31T05:52:58;29.30;;;10.73;;
47335;SDS011;33068;51.990;5.926;2023-07-31T05:55:25;27.67;;;9.85;;
47335;SDS011;33068;51.990;5.926;2023-07-31T05:57:52;28.23;;;10.23;;
47335;SDS011;33068;51.990;5.926;2023-07-31T06:00:19;21.45;;;9.25;;
47335;SDS011;33068;51.990;5.926;2023-07-31T06:02:46;23.00;;;9.38;;
47335;SDS011;33068;51.990;5.926;2023-07-31T06:05:12;26.95;;;9.85;;
47335;SDS011;33068;51.990;5.926;2023-07-31T06:07:39;29.25;;;10.05;;
47335;SDS011;33068;51.990;5.926;2023-07-31T06:10:06;26.35;;;10.55;;
47335;SDS011;33068;51.990;5.926;2023-07-31T06:12:33;34.42;;;9.73;;
47335;SDS011;33068;51.990;5.926;2023-07-31T06:15:01;29.65;;;10.40;;
47335;SDS011;33068;51.990;5.926;2023-07-31T06:17:28;27.42;;;9.73;;
47335;SDS011;33068;51.990;5.926;2023-07-31T06:19:55;27.65;;;9.38;;
47335;SDS011;33068;51.990;5.926;2023-07-31T06:22:23;24.92;;;9.90;;
47335;SDS011;33068;51.990;5.926;2023-07-31T06:24:49;29.73;;;10.30;;
47335;SDS011;33068;51.990;5.926;2023-07-31T06:27:15;43.60;;;11.27;;
47335;SDS011;33068;51.990;5.926;2023-07-31T06:29:42;27.50;;;9.88;;
47335;SDS011;33068;51.990;5.926;2023-07-31T06:32:09;27.58;;;9.90;;
47335;SDS011;33068;51.990;5.926;2023-07-31T06:34:35;23.65;;;9.32;;
47335;SDS011;33068;51.990;5.926;2023-07-31T06:37:02;26.67;;;9.50;;
47335;SDS011;33068;51.990;5.926;2023-07-31T06:39:28;30.02;;;10.27;;
47335;SDS011;33068;51.990;5.926;2023-07-31T06:41:54;18.40;;;8.35;;
47335;SDS011;33068;51.990;5.926;2023-07-31T06:44:21;28.08;;;9.18;;
47335;SDS011;33068;51.990;5.926;2023-07-31T06:46:47;19.77;;;7.68;;
47335;SDS011;33068;51.990;5.926;2023-07-31T06:49:14;28.25;;;9.23;;
47335;SDS011;33068;51.990;5.926;2023-07-31T06:51:41;21.77;;;9.02;;
47335;SDS011;33068;51.990;5.926;2023-07-31T06:54:07;19.70;;;7.78;;
47335;SDS011;33068;51.990;5.926;2023-07-31T06:56:34;19.33;;;7.72;;
47335;SDS011;33068;51.990;5.926;2023-07-31T06:59:00;17.23;;;7.47;;
47335;SDS011;33068;51.990;5.926;2023-07-31T07:01:27;20.48;;;7.80;;
47335;SDS011;33068;51.990;5.926;2023-07-31T07:03:54;20.65;;;7.60;;
47335;SDS011;33068;51.990;5.926;2023-07-31T07:06:21;19.85;;;7.40;;
47335;SDS011;33068;51.990;5.926;2023-07-31T07:08:48;42.78;;;8.68;;
47335;SDS011;33068;51.990;5.926;2023-07-31T07:11:14;13.23;;;6.07;;
47335;SDS011;33068;51.990;5.926;2023-07-31T07:13:41;19.88;;;6.07;;
47335;SDS011;33068;51.990;5.926;2023-07-31T07:16:07;13.43;;;4.88;;
47335;SDS011;33068;51.990;5.926;2023-07-31T07:18:35;10.10;;;4.18;;
47335;SDS011;33068;51.990;5.926;2023-07-31T07:21:02;7.07;;;4.25;;
47335;SDS011;33068;51.990;5.926;2023-07-31T07:23:29;7.03;;;3.60;;
47335;SDS011;33068;51.990;5.926;2023-07-31T07:25:55;10.98;;;4.32;;
47335;SDS011;33068;51.990;5.926;2023-07-31T07:28:22;7.97;;;3.35;;
47335;SDS011;33068;51.990;5.926;2023-07-31T07:30:50;6.55;;;3.28;;
47335;SDS011;33068;51.990;5.926;2023-07-31T07:33:18;8.38;;;3.78;;
47335;SDS011;33068;51.990;5.926;2023-07-31T07:35:44;8.73;;;3.35;;
47335;SDS011;33068;51.990;5.926;2023-07-31T07:38:10;41.50;;;5.78;;
47335;SDS011;33068;51.990;5.926;2023-07-31T07:40:39;3.17;;;2.10;;
47335;SDS011;33068;51.990;5.926;2023-07-31T07:43:05;3.88;;;2.67;;
47335;SDS011;33068;51.990;5.926;2023-07-31T07:45:32;5.82;;;2.78;;
47335;SDS011;33068;51.990;5.926;2023-07-31T07:47:58;54.88;;;5.72;;
47335;SDS011;33068;51.990;5.926;2023-07-31T07:50:25;11.40;;;2.38;;
47335;SDS011;33068;51.990;5.926;2023-07-31T07:52:51;6.78;;;2.30;;
47335;SDS011;33068;51.990;5.926;2023-07-31T07:55:17;6.70;;;2.83;;
47335;SDS011;33068;51.990;5.926;2023-07-31T07:57:45;5.35;;;2.42;;
47335;SDS011;33068;51.990;5.926;2023-07-31T08:00:11;60.10;;;6.43;;
47335;SDS011;33068;51.990;5.926;2023-07-31T08:02:41;11.45;;;2.20;;
47335;SDS011;33068;51.990;5.926;2023-07-31T08:05:08;2.33;;;1.42;;
47335;SDS011;33068;51.990;5.926;2023-07-31T08:07:35;2.63;;;1.88;;
47335;SDS011;33068;51.990;5.926;2023-07-31T08:10:01;2.05;;;1.70;;
47335;SDS011;33068;51.990;5.926;2023-07-31T08:12:28;2.63;;;1.77;;
47335;SDS011;33068;51.990;5.926;2023-07-31T08:14:55;8.73;;;2.15;;
47335;SDS011;33068;51.990;5.926;2023-07-31T08:17:22;5.82;;;2.40;;
47335;SDS011;33068;51.990;5.926;2023-07-31T08:19:49;2.35;;;1.70;;
47335;SDS011;33068;51.990;5.926;2023-07-31T08:22:16;3.25;;;2.50;;
47335;SDS011;33068;51.990;5.926;2023-07-31T08:24:42;21.27;;;4.78;;
47335;SDS011;33068;51.990;5.926;2023-07-31T08:27:08;4.15;;;3.00;;
47335;SDS011;33068;51.990;5.926;2023-07-31T08:29:35;3.95;;;2.42;;
47335;SDS011;33068;51.990;5.926;2023-07-31T08:32:02;3.70;;;3.08;;
47335;SDS011;33068;51.990;5.926;2023-07-31T08:34:29;4.18;;;3.58;;
47335;SDS011;33068;51.990;5.926;2023-07-31T08:36:55;4.70;;;3.72;;
47335;SDS011;33068;51.990;5.926;2023-07-31T08:39:22;13.50;;;4.40;;
47335;SDS011;33068;51.990;5.926;2023-07-31T08:41:49;5.60;;;3.58;;
47335;SDS011;33068;51.990;5.926;2023-07-31T08:44:15;5.25;;;3.97;;
47335;SDS011;33068;51.990;5.926;2023-07-31T08:46:43;5.65;;;4.03;;
47335;SDS011;33068;51.990;5.926;2023-07-31T08:49:12;5.05;;;3.53;;
47335;SDS011;33068;51.990;5.926;2023-07-31T08:51:39;4.65;;;3.42;;
47335;SDS011;33068;51.990;5.926;2023-07-31T08:54:07;4.30;;;3.83;;
47335;SDS011;33068;51.990;5.926;2023-07-31T08:56:33;4.35;;;3.95;;
47335;SDS011;33068;51.990;5.926;2023-07-31T08:59:02;4.30;;;3.90;;
47335;SDS011;33068;51.990;5.926;2023-07-31T09:01:30;5.15;;;3.50;;
47335;SDS011;33068;51.990;5.926;2023-07-31T09:04:00;5.85;;;4.30;;
47335;SDS011;33068;51.990;5.926;2023-07-31T09:06:30;4.28;;;3.78;;
47335;SDS011;33068;51.990;5.926;2023-07-31T09:08:57;4.93;;;3.95;;
47335;SDS011;33068;51.990;5.926;2023-07-31T09:11:24;4.65;;;4.22;;
47335;SDS011;33068;51.990;5.926;2023-07-31T09:13:52;6.50;;;4.22;;
47335;SDS011;33068;51.990;5.926;2023-07-31T09:16:26;4.45;;;4.05;;
47335;SDS011;33068;51.990;5.926;2023-07-31T09:18:55;4.90;;;4.13;;
47335;SDS011;33068;51.990;5.926;2023-07-31T09:21:23;7.25;;;5.00;;
47335;SDS011;33068;51.990;5.926;2023-07-31T09:23:51;6.70;;;4.30;;
47335;SDS011;33068;51.990;5.926;2023-07-31T09:26:28;5.28;;;4.78;;
47335;SDS011;33068;51.990;5.926;2023-07-31T09:28:56;7.53;;;5.43;;
47335;SDS011;33068;51.990;5.926;2023-07-31T09:31:31;7.03;;;6.18;;
47335;SDS011;33068;51.990;5.926;2023-07-31T09:36:28;8.18;;;6.10;;
47335;SDS011;33068;51.990;5.926;2023-07-31T09:38:57;8.20;;;6.95;;
47335;SDS011;33068;51.990;5.926;2023-07-31T09:41:29;7.70;;;6.82;;
47335;SDS011;33068;51.990;5.926;2023-07-31T09:43:56;8.23;;;7.43;;
47335;SDS011;33068;51.990;5.926;2023-07-31T09:46:22;8.30;;;7.28;;
47335;SDS011;33068;51.990;5.926;2023-07-31T09:48:53;10.20;;;8.38;;
47335;SDS011;33068;51.990;5.926;2023-07-31T09:53:56;12.30;;;8.80;;
47335;SDS011;33068;51.990;5.926;2023-07-31T09:56:23;13.35;;;9.45;;
47335;SDS011;33068;51.990;5.926;2023-07-31T09:58:51;11.70;;;9.90;;
47335;SDS011;33068;51.990;5.926;2023-07-31T10:01:19;14.50;;;11.35;;
47335;SDS011;33068;51.990;5.926;2023-07-31T10:03:45;15.02;;;10.45;;
47335;SDS011;33068;51.990;5.926;2023-07-31T10:06:12;14.55;;;10.77;;
47335;SDS011;33068;51.990;5.926;2023-07-31T10:08:43;12.65;;;10.35;;
47335;SDS011;33068;51.990;5.926;2023-07-31T10:11:13;16.33;;;9.95;;
47335;SDS011;33068;51.990;5.926;2023-07-31T10:13:40;14.32;;;10.23;;
47335;SDS011;33068;51.990;5.926;2023-07-31T10:16:08;11.30;;;10.00;;
47335;SDS011;33068;51.990;5.926;2023-07-31T10:18:36;16.30;;;11.07;;
47335;SDS011;33068;51.990;5.926;2023-07-31T10:21:04;17.33;;;11.45;;
47335;SDS011;33068;51.990;5.926;2023-07-31T10:23:31;15.55;;;12.13;;
47335;SDS011;33068;51.990;5.926;2023-07-31T10:25:58;14.05;;;10.38;;
47335;SDS011;33068;51.990;5.926;2023-07-31T10:28:27;16.92;;;13.35;;
47335;SDS011;33068;51.990;5.926;2023-07-31T10:30:55;15.23;;;11.85;;
47335;SDS011;33068;51.990;5.926;2023-07-31T10:33:21;13.68;;;12.05;;
47335;SDS011;33068;51.990;5.926;2023-07-31T10:35:48;16.83;;;12.88;;
47335;SDS011;33068;51.990;5.926;2023-07-31T10:38:14;17.23;;;12.38;;
47335;SDS011;33068;51.990;5.926;2023-07-31T10:40:41;12.75;;;11.27;;
47335;SDS011;33068;51.990;5.926;2023-07-31T10:43:08;13.85;;;11.07;;
47335;SDS011;33068;51.990;5.926;2023-07-31T10:45:39;16.23;;;11.68;;
47335;SDS011;33068;51.990;5.926;2023-07-31T10:48:12;16.17;;;11.65;;
47335;SDS011;33068;51.990;5.926;2023-07-31T10:50:46;15.93;;;12.05;;
47335;SDS011;33068;51.990;5.926;2023-07-31T10:53:22;16.23;;;11.88;;
47335;SDS011;33068;51.990;5.926;2023-07-31T10:55:49;16.85;;;11.57;;
47335;SDS011;33068;51.990;5.926;2023-07-31T10:58:18;16.17;;;12.40;;
47335;SDS011;33068;51.990;5.926;2023-07-31T11:00:46;14.35;;;12.85;;
47335;SDS011;33068;51.990;5.926;2023-07-31T11:03:13;17.23;;;11.18;;
47335;SDS011;33068;51.990;5.926;2023-07-31T11:05:45;14.05;;;11.00;;
47335;SDS011;33068;51.990;5.926;2023-07-31T11:08:17;19.30;;;11.77;;
47335;SDS011;33068;51.990;5.926;2023-07-31T11:10:46;15.45;;;11.50;;
47335;SDS011;33068;51.990;5.926;2023-07-31T11:13:14;18.90;;;12.13;;
47335;SDS011;33068;51.990;5.926;2023-07-31T11:15:41;16.20;;;11.40;;
47335;SDS011;33068;51.990;5.926;2023-07-31T11:18:08;14.13;;;10.82;;
47335;SDS011;33068;51.990;5.926;2023-07-31T11:20:36;17.88;;;11.00;;
47335;SDS011;33068;51.990;5.926;2023-07-31T11:23:03;12.63;;;10.35;;
47335;SDS011;33068;51.990;5.926;2023-07-31T11:25:32;14.27;;;10.95;;
47335;SDS011;33068;51.990;5.926;2023-07-31T11:28:01;15.10;;;10.88;;
47335;SDS011;33068;51.990;5.926;2023-07-31T11:30:29;17.13;;;10.95;;
47335;SDS011;33068;51.990;5.926;2023-07-31T11:32:56;13.07;;;11.38;;
47335;SDS011;33068;51.990;5.926;2023-07-31T11:35:23;16.80;;;10.70;;
47335;SDS011;33068;51.990;5.926;2023-07-31T11:37:49;11.85;;;10.40;;
47335;SDS011;33068;51.990;5.926;2023-07-31T11:40:16;15.75;;;11.23;;
47335;SDS011;33068;51.990;5.926;2023-07-31T11:42:42;12.85;;;10.60;;
47335;SDS011;33068;51.990;5.926;2023-07-31T11:45:09;12.02;;;9.43;;
47335;SDS011;33068;51.990;5.926;2023-07-31T11:47:36;15.02;;;10.30;;
47335;SDS011;33068;51.990;5.926;2023-07-31T11:50:04;12.45;;;9.57;;
47335;SDS011;33068;51.990;5.926;2023-07-31T11:52:34;15.45;;;9.40;;
47335;SDS011;33068;51.990;5.926;2023-07-31T11:55:04;13.70;;;10.15;;
47335;SDS011;33068;51.990;5.926;2023-07-31T11:57:32;12.65;;;9.93;;
47335;SDS011;33068;51.990;5.926;2023-07-31T12:00:03;13.23;;;9.40;;
47335;SDS011;33068;51.990;5.926;2023-07-31T12:02:31;12.77;;;9.38;;
47335;SDS011;33068;51.990;5.926;2023-07-31T12:04:57;12.30;;;9.73;;
47335;SDS011;33068;51.990;5.926;2023-07-31T12:07:24;12.20;;;9.40;;
47335;SDS011;33068;51.990;5.926;2023-07-31T12:09:52;13.20;;;9.20;;
47335;SDS011;33068;51.990;5.926;2023-07-31T12:12:19;11.20;;;8.35;;
47335;SDS011;33068;51.990;5.926;2023-07-31T12:14:46;12.98;;;9.25;;
47335;SDS011;33068;51.990;5.926;2023-07-31T12:17:13;9.95;;;8.50;;
47335;SDS011;33068;51.990;5.926;2023-07-31T12:19:40;11.38;;;8.27;;
47335;SDS011;33068;51.990;5.926;2023-07-31T12:22:10;11.32;;;8.00;;
47335;SDS011;33068;51.990;5.926;2023-07-31T12:24:38;10.57;;;7.55;;
47335;SDS011;33068;51.990;5.926;2023-07-31T12:27:09;8.32;;;7.25;;
47335;SDS011;33068;51.990;5.926;2023-07-31T12:29:36;10.30;;;7.50;;
47335;SDS011;33068;51.990;5.926;2023-07-31T12:32:18;8.60;;;7.70;;
47335;SDS011;33068;51.990;5.926;2023-07-31T12:34:45;10.27;;;7.97;;
47335;SDS011;33068;51.990;5.926;2023-07-31T12:37:12;14.40;;;9.40;;
47335;SDS011;33068;51.990;5.926;2023-07-31T12:39:38;11.18;;;8.85;;
47335;SDS011;33068;51.990;5.926;2023-07-31T12:42:05;9.50;;;8.55;;
47335;SDS011;33068;51.990;5.926;2023-07-31T12:44:33;11.45;;;8.32;;
47335;SDS011;33068;51.990;5.926;2023-07-31T12:46:59;14.18;;;9.73;;
47335;SDS011;33068;51.990;5.926;2023-07-31T12:49:25;11.95;;;8.73;;
47335;SDS011;33068;51.990;5.926;2023-07-31T12:51:52;14.02;;;9.95;;
47335;SDS011;33068;51.990;5.926;2023-07-31T12:54:19;16.95;;;9.68;;
47335;SDS011;33068;51.990;5.926;2023-07-31T12:56:45;15.18;;;11.50;;
47335;SDS011;33068;51.990;5.926;2023-07-31T12:59:12;12.30;;;10.10;;
47335;SDS011;33068;51.990;5.926;2023-07-31T13:01:40;13.77;;;9.95;;
47335;SDS011;33068;51.990;5.926;2023-07-31T13:04:06;13.23;;;9.70;;
47335;SDS011;33068;51.990;5.926;2023-07-31T13:06:33;13.35;;;10.60;;
47335;SDS011;33068;51.990;5.926;2023-07-31T13:09:00;15.23;;;9.75;;
47335;SDS011;33068;51.990;5.926;2023-07-31T13:11:26;12.10;;;10.20;;
47335;SDS011;33068;51.990;5.926;2023-07-31T13:13:55;15.80;;;10.45;;
47335;SDS011;33068;51.990;5.926;2023-07-31T13:16:21;14.30;;;10.18;;
47335;SDS011;33068;51.990;5.926;2023-07-31T13:18:48;13.63;;;9.30;;
47335;SDS011;33068;51.990;5.926;2023-07-31T13:21:17;11.77;;;8.98;;
47335;SDS011;33068;51.990;5.926;2023-07-31T13:23:43;13.38;;;8.65;;
47335;SDS011;33068;51.990;5.926;2023-07-31T13:26:09;13.85;;;9.90;;
47335;SDS011;33068;51.990;5.926;2023-07-31T13:28:36;12.68;;;9.15;;
47335;SDS011;33068;51.990;5.926;2023-07-31T13:31:02;13.75;;;9.50;;
47335;SDS011;33068;51.990;5.926;2023-07-31T13:33:29;11.77;;;8.90;;
47335;SDS011;33068;51.990;5.926;2023-07-31T13:35:56;13.23;;;8.63;;
47335;SDS011;33068;51.990;5.926;2023-07-31T13:38:25;10.38;;;8.55;;
47335;SDS011;33068;51.990;5.926;2023-07-31T13:40:52;9.43;;;8.32;;
47335;SDS011;33068;51.990;5.926;2023-07-31T13:43:18;8.52;;;7.72;;
47335;SDS011;33068;51.990;5.926;2023-07-31T13:45:44;9.82;;;7.35;;
47335;SDS011;33068;51.990;5.926;2023-07-31T13:48:11;9.30;;;7.55;;
47335;SDS011;33068;51.990;5.926;2023-07-31T13:50:37;13.35;;;8.00;;
47335;SDS011;33068;51.990;5.926;2023-07-31T13:53:04;10.75;;;7.55;;
47335;SDS011;33068;51.990;5.926;2023-07-31T13:55:31;11.85;;;8.25;;
47335;SDS011;33068;51.990;5.926;2023-07-31T13:57:57;9.80;;;7.43;;
47335;SDS011;33068;51.990;5.926;2023-07-31T14:00:24;11.77;;;7.57;;
47335;SDS011;33068;51.990;5.926;2023-07-31T14:02:50;8.73;;;7.70;;
47335;SDS011;33068;51.990;5.926;2023-07-31T14:05:17;9.15;;;6.60;;
47335;SDS011;33068;51.990;5.926;2023-07-31T14:07:43;12.32;;;7.68;;
47335;SDS011;33068;51.990;5.926;2023-07-31T14:10:10;12.15;;;7.40;;
47335;SDS011;33068;51.990;5.926;2023-07-31T14:12:37;10.65;;;7.53;;
47335;SDS011;33068;51.990;5.926;2023-07-31T14:15:04;13.50;;;8.52;;
47335;SDS011;33068;51.990;5.926;2023-07-31T14:17:31;13.68;;;8.63;;
47335;SDS011;33068;51.990;5.926;2023-07-31T14:20:00;13.38;;;7.25;;
47335;SDS011;33068;51.990;5.926;2023-07-31T14:22:29;13.77;;;8.60;;
47335;SDS011;33068;51.990;5.926;2023-07-31T14:24:55;13.50;;;8.75;;
47335;SDS011;33068;51.990;5.926;2023-07-31T14:27:22;12.43;;;8.05;;
47335;SDS011;33068;51.990;5.926;2023-07-31T14:29:49;14.02;;;8.27;;
47335;SDS011;33068;51.990;5.926;2023-07-31T14:32:15;18.95;;;8.75;;
47335;SDS011;33068;51.990;5.926;2023-07-31T14:34:42;16.38;;;9.95;;
47335;SDS011;33068;51.990;5.926;2023-07-31T14:37:08;15.13;;;8.88;;
47335;SDS011;33068;51.990;5.926;2023-07-31T14:39:35;20.05;;;10.15;;
47335;SDS011;33068;51.990;5.926;2023-07-31T14:42:01;16.83;;;9.32;;